createdAt,value
2023-05-16T00:00:48.415Z,6.63
2023-05-16T00:01:42.101Z,6.77
2023-05-16T00:02:33.889Z,6.79
2023-05-16T00:03:26.331Z,6.55
2023-05-16T00:04:18.089Z,6.88
2023-05-16T00:05:14.681Z,7.46
2023-05-16T00:06:07.562Z,6.80
2023-05-16T00:07:01.321Z,7.58
2023-05-16T00:07:52.719Z,7.54
2023-05-16T00:08:44.165Z,7.31
2023-05-16T00:09:35.611Z,7.41
2023-05-16T00:10:27.450Z,7.35
2023-05-16T00:11:21.677Z,7.03
2023-05-16T00:12:13.355Z,7.59
2023-05-16T00:13:06.113Z,7.72
2023-05-16T00:13:57.776Z,7.41
2023-05-16T00:14:50.244Z,7.33
2023-05-16T00:15:44.167Z,7.83
2023-05-16T00:16:38.125Z,7.42
2023-05-16T00:17:29.709Z,6.89
2023-05-16T00:18:22.932Z,6.45
2023-05-16T00:19:15.345Z,6.96
2023-05-16T00:20:11.129Z,7.01
2023-05-16T00:21:03.572Z,6.78
2023-05-16T00:21:55.190Z,6.34
2023-05-16T00:22:47.085Z,6.18
2023-05-16T00:23:40.706Z,6.41
2023-05-16T00:24:35.653Z,6.21
2023-05-16T00:25:29.963Z,6.18
2023-05-16T00:26:21.619Z,6.27
2023-05-16T00:27:13.084Z,5.90
2023-05-16T00:28:10.029Z,6.56
2023-05-16T00:29:02.364Z,6.61
2023-05-16T00:29:56.117Z,6.15
2023-05-16T00:30:49.500Z,6.50
2023-05-16T00:31:42.444Z,6.08
2023-05-16T00:32:34.306Z,6.55
2023-05-16T00:33:25.806Z,6.55
2023-05-16T00:34:17.604Z,6.41
2023-05-16T00:35:11.442Z,6.80
2023-05-16T00:36:02.918Z,6.17
2023-05-16T00:36:54.331Z,5.75
2023-05-16T00:37:46.056Z,6.31
2023-05-16T00:38:37.598Z,6.51
2023-05-16T00:39:29.330Z,6.61
2023-05-16T00:40:21.392Z,6.88
2023-05-16T00:41:15.406Z,6.44
2023-05-16T00:42:08.991Z,7.13
2023-05-16T00:43:00.569Z,7.48
2023-05-16T00:43:52.104Z,7.94
2023-05-16T00:44:43.563Z,7.47
2023-05-16T00:45:37.211Z,7.34
2023-05-16T00:46:28.651Z,7.43
2023-05-16T00:47:22.859Z,7.80
2023-05-16T00:48:15.886Z,8.84
2023-05-16T00:49:08.709Z,9.02
2023-05-16T00:50:04.002Z,9.01
2023-05-16T00:50:56.088Z,8.30
2023-05-16T00:51:48.330Z,8.61
2023-05-16T00:52:42.806Z,10.05
2023-05-16T00:53:34.212Z,10.31
2023-05-16T00:54:28.799Z,10.62
2023-05-16T00:55:22.685Z,10.76
2023-05-16T00:56:14.217Z,10.22
2023-05-16T00:57:06.743Z,10.46
2023-05-16T00:57:59.760Z,10.43
2023-05-16T00:58:51.695Z,10.45
2023-05-16T00:59:46.423Z,10.17
2023-05-16T01:00:37.957Z,9.38
2023-05-16T01:01:30.274Z,9.16
2023-05-16T01:02:21.916Z,9.91
2023-05-16T01:03:13.511Z,9.64
2023-05-16T01:04:06.009Z,9.41
2023-05-16T01:04:59.572Z,8.85
2023-05-16T01:05:51.706Z,8.40
2023-05-16T01:06:44.072Z,8.57
2023-05-16T01:07:35.959Z,8.42
2023-05-16T01:08:27.542Z,7.61
2023-05-16T01:09:19.493Z,7.50
2023-05-16T01:10:11.866Z,7.91
2023-05-16T01:11:21.798Z,7.24
2023-05-16T01:12:23.901Z,6.86
2023-05-16T01:13:44.767Z,6.61
2023-05-16T01:14:56.656Z,7.33
2023-05-16T01:16:03.090Z,7.07
2023-05-16T01:17:11.220Z,7.08
2023-05-16T01:18:06.352Z,6.94
2023-05-16T01:19:21.509Z,6.76
2023-05-16T01:20:40.492Z,6.69
2023-05-16T01:21:52.943Z,6.58
2023-05-16T01:23:00.137Z,6.26
2023-05-16T01:24:19.328Z,5.86
2023-05-16T01:25:45.432Z,5.96
2023-05-16T01:26:38.817Z,6.29
2023-05-16T01:27:32.302Z,6.09
2023-05-16T01:28:25.946Z,5.83
2023-05-16T01:29:22.711Z,6.24
2023-05-16T01:30:17.214Z,5.57
2023-05-16T01:31:08.817Z,6.06
2023-05-16T01:32:00.590Z,6.03
2023-05-16T01:32:55.214Z,5.51
2023-05-16T01:33:47.492Z,5.22
2023-05-16T01:34:39.010Z,4.98
2023-05-16T01:35:31.825Z,5.14
2023-05-16T01:36:48.016Z,5.50
2023-05-16T01:37:48.677Z,5.83
2023-05-16T01:39:14.739Z,6.45
2023-05-16T01:40:22.193Z,6.55
2023-05-16T01:41:39.642Z,6.39
2023-05-16T01:42:37.102Z,6.66
2023-05-16T01:43:43.928Z,6.74
2023-05-16T01:44:43.758Z,7.59
2023-05-16T01:45:42.015Z,7.42
2023-05-16T01:46:41.442Z,7.48
2023-05-16T01:47:40.002Z,7.28
2023-05-16T01:48:42.210Z,8.03
2023-05-16T01:49:44.046Z,7.92
2023-05-16T01:50:43.384Z,8.80
2023-05-16T01:51:41.737Z,9.46
2023-05-16T01:52:58.487Z,9.11
2023-05-16T01:53:57.034Z,9.08
2023-05-16T01:54:54.498Z,9.35
2023-05-16T01:55:56.095Z,8.64
2023-05-16T01:56:53.523Z,8.75
2023-05-16T01:57:46.028Z,8.37
2023-05-16T01:58:39.127Z,8.21
2023-05-16T01:59:31.946Z,8.37
2023-05-16T02:00:23.753Z,7.51
2023-05-16T02:01:15.420Z,7.84
2023-05-16T02:02:06.987Z,7.82
2023-05-16T02:02:59.103Z,7.97
2023-05-16T02:03:51.628Z,7.62
2023-05-16T02:04:44.419Z,8.10
2023-05-16T02:05:38.498Z,8.24
2023-05-16T02:06:32.624Z,8.00
2023-05-16T02:07:24.395Z,7.71
2023-05-16T02:08:18.397Z,8.38
2023-05-16T02:09:10.030Z,7.60
2023-05-16T02:10:06.100Z,7.64
2023-05-16T02:11:00.095Z,7.68
2023-05-16T02:11:51.605Z,7.75
2023-05-16T02:12:43.120Z,7.39
2023-05-16T02:13:35.397Z,7.31
2023-05-16T02:14:28.285Z,6.48
2023-05-16T02:15:21.203Z,6.19
2023-05-16T02:16:13.505Z,6.56
2023-05-16T02:17:06.131Z,6.46
2023-05-16T02:18:00.024Z,6.18
2023-05-16T02:18:51.574Z,6.30
2023-05-16T02:19:43.093Z,5.92
2023-05-16T02:20:37.028Z,5.65
2023-05-16T02:21:28.502Z,5.76
2023-05-16T02:22:20.007Z,5.29
2023-05-16T02:23:14.302Z,5.51
2023-05-16T02:24:06.221Z,5.60
2023-05-16T02:24:57.635Z,5.57
2023-05-16T02:25:49.098Z,5.54
2023-05-16T02:26:40.687Z,5.55
2023-05-16T02:27:32.769Z,5.81
2023-05-16T02:28:24.188Z,5.65
2023-05-16T02:29:16.775Z,5.74
2023-05-16T02:30:09.798Z,6.00
2023-05-16T02:31:01.613Z,6.25
2023-05-16T02:31:53.030Z,6.22
2023-05-16T02:32:45.074Z,6.32
2023-05-16T02:33:37.277Z,6.17
2023-05-16T02:34:29.956Z,6.33
2023-05-16T02:35:21.561Z,6.03
2023-05-16T02:36:13.034Z,6.43
2023-05-16T02:37:05.219Z,5.79
2023-05-16T02:37:57.046Z,5.94
2023-05-16T02:38:51.917Z,5.74
2023-05-16T02:39:43.334Z,5.84
2023-05-16T02:40:34.946Z,5.98
2023-05-16T02:41:27.801Z,6.10
2023-05-16T02:42:21.686Z,5.95
2023-05-16T02:43:13.513Z,5.85
2023-05-16T02:44:06.749Z,5.69
2023-05-16T02:44:58.195Z,5.68
2023-05-16T02:45:49.676Z,5.67
2023-05-16T02:46:41.964Z,5.56
2023-05-16T02:47:37.194Z,5.67
2023-05-16T02:48:28.669Z,5.59
2023-05-16T02:49:20.104Z,5.50
2023-05-16T02:50:11.493Z,5.74
2023-05-16T02:51:02.999Z,5.60
2023-05-16T02:51:54.537Z,5.85
2023-05-16T02:52:47.168Z,5.61
2023-05-16T02:53:38.631Z,5.60
2023-05-16T02:54:32.431Z,6.02
2023-05-16T02:55:27.808Z,5.61
2023-05-16T02:56:19.868Z,6.10
2023-05-16T02:57:12.068Z,6.06
2023-05-16T02:58:03.577Z,6.20
2023-05-16T02:58:56.254Z,6.37
2023-05-16T02:59:47.713Z,6.26
2023-05-16T03:00:39.122Z,6.21
2023-05-16T03:01:31.195Z,6.53
2023-05-16T03:02:23.264Z,5.74
2023-05-16T03:03:14.803Z,6.75
2023-05-16T03:04:06.540Z,6.48
2023-05-16T03:04:58.653Z,6.97
2023-05-16T03:05:50.324Z,6.60
2023-05-16T03:06:41.908Z,6.86
2023-05-16T03:07:33.507Z,6.55
2023-05-16T03:08:24.950Z,6.17
2023-05-16T03:09:16.997Z,6.68
2023-05-16T03:10:08.878Z,6.94
2023-05-16T03:11:03.483Z,7.27
2023-05-16T03:11:54.939Z,7.12
2023-05-16T03:12:46.450Z,7.58
2023-05-16T03:13:40.132Z,7.11
2023-05-16T03:14:31.647Z,7.27
2023-05-16T03:15:23.125Z,7.32
2023-05-16T03:16:15.668Z,7.51
2023-05-16T03:17:07.411Z,7.97
2023-05-16T03:18:02.053Z,8.36
2023-05-16T03:18:54.983Z,8.49
2023-05-16T03:19:46.838Z,7.77
2023-05-16T03:20:38.509Z,7.52
2023-05-16T03:21:29.941Z,7.77
2023-05-16T03:22:21.336Z,8.47
2023-05-16T03:23:13.168Z,8.31
2023-05-16T03:24:05.141Z,8.01
2023-05-16T03:24:57.753Z,8.07
2023-05-16T03:25:49.526Z,8.68
2023-05-16T03:26:45.504Z,7.81
2023-05-16T03:27:36.884Z,8.54
2023-05-16T03:28:30.759Z,8.48
2023-05-16T03:29:22.543Z,8.40
2023-05-16T03:30:14.544Z,8.32
2023-05-16T03:31:06.076Z,8.31
2023-05-16T03:31:57.804Z,8.11
2023-05-16T03:32:49.333Z,8.11
2023-05-16T03:33:40.810Z,8.28
2023-05-16T03:34:32.193Z,8.34
2023-05-16T03:35:24.558Z,8.55
2023-05-16T03:36:16.535Z,8.86
2023-05-16T03:37:08.453Z,9.52
2023-05-16T03:37:59.995Z,9.10
2023-05-16T03:38:51.778Z,8.83
2023-05-16T03:39:45.214Z,8.83
2023-05-16T03:40:37.036Z,8.59
2023-05-16T03:41:28.642Z,8.31
2023-05-16T03:42:20.157Z,8.59
2023-05-16T03:43:13.670Z,8.42
2023-05-16T03:44:08.121Z,8.37
2023-05-16T03:44:59.562Z,7.70
2023-05-16T03:45:51.131Z,7.97
2023-05-16T03:46:42.719Z,7.42
2023-05-16T03:47:34.600Z,7.21
2023-05-16T03:48:26.097Z,6.99
2023-05-16T03:49:17.826Z,6.88
2023-05-16T03:50:09.925Z,7.01
2023-05-16T03:51:01.309Z,6.76
2023-05-16T03:51:52.695Z,6.26
2023-05-16T03:52:44.442Z,6.53
2023-05-16T03:53:37.484Z,6.38
2023-05-16T03:54:29.168Z,6.22
2023-05-16T03:55:21.534Z,6.53
2023-05-16T03:56:13.283Z,6.62
2023-05-16T03:57:04.904Z,6.80
2023-05-16T03:57:56.995Z,6.24
2023-05-16T03:58:48.708Z,5.94
2023-05-16T03:59:43.085Z,5.86
2023-05-16T04:00:36.759Z,5.87
2023-05-16T04:01:28.184Z,6.25
2023-05-16T04:02:19.580Z,6.52
2023-05-16T04:03:11.361Z,5.97
2023-05-16T04:04:02.869Z,6.08
2023-05-16T04:04:55.428Z,5.75
2023-05-16T04:05:47.580Z,6.35
2023-05-16T04:06:39.087Z,6.11
2023-05-16T04:07:30.880Z,6.14
2023-05-16T04:08:22.361Z,6.22
2023-05-16T04:09:14.098Z,6.33
2023-05-16T04:10:06.904Z,6.33
2023-05-16T04:11:00.816Z,6.45
2023-05-16T04:11:52.200Z,6.39
2023-05-16T04:12:44.765Z,6.51
2023-05-16T04:13:36.786Z,6.57
2023-05-16T04:14:28.295Z,5.98
2023-05-16T04:15:19.765Z,6.15
2023-05-16T04:16:13.266Z,6.50
2023-05-16T04:17:05.215Z,6.73
2023-05-16T04:17:57.071Z,6.53
2023-05-16T04:18:48.709Z,6.87
2023-05-16T04:19:42.835Z,6.56
2023-05-16T04:20:35.094Z,6.36
2023-05-16T04:21:27.538Z,6.50
2023-05-16T04:22:21.383Z,6.55
2023-05-16T04:23:13.025Z,7.12
2023-05-16T04:24:04.810Z,6.69
2023-05-16T04:24:57.192Z,6.45
2023-05-16T04:25:48.576Z,6.25
2023-05-16T04:26:39.980Z,6.56
2023-05-16T04:27:31.536Z,6.54
2023-05-16T04:28:23.108Z,6.11
2023-05-16T04:29:14.658Z,6.06
2023-05-16T04:30:09.038Z,5.93
2023-05-16T04:31:01.153Z,6.73
2023-05-16T04:31:52.751Z,6.26
2023-05-16T04:32:47.009Z,6.39
2023-05-16T04:33:38.458Z,6.22
2023-05-16T04:34:30.634Z,6.57
2023-05-16T04:35:22.287Z,5.83
2023-05-16T04:36:13.795Z,6.32
2023-05-16T04:37:08.521Z,6.10
2023-05-16T04:38:00.067Z,5.94
2023-05-16T04:38:52.628Z,6.15
2023-05-16T04:39:47.615Z,5.71
2023-05-16T04:40:46.228Z,5.72
2023-05-16T04:41:37.712Z,5.92
2023-05-16T04:42:31.460Z,6.22
2023-05-16T04:43:23.021Z,6.57
2023-05-16T04:44:14.467Z,5.74
2023-05-16T04:45:08.690Z,6.24
2023-05-16T04:46:00.400Z,6.73
2023-05-16T04:46:53.320Z,6.36
2023-05-16T04:47:44.848Z,6.51
2023-05-16T04:48:36.250Z,7.03
2023-05-16T04:49:27.725Z,6.94
2023-05-16T04:50:19.174Z,6.26
2023-05-16T04:51:12.173Z,5.96
2023-05-16T04:52:03.871Z,6.43
2023-05-16T04:52:56.492Z,6.51
2023-05-16T04:53:48.837Z,6.41
2023-05-16T04:54:40.358Z,6.23
2023-05-16T04:55:32.098Z,6.44
2023-05-16T04:56:25.937Z,6.22
2023-05-16T04:57:17.665Z,6.39
2023-05-16T04:58:09.236Z,6.45
2023-05-16T04:59:00.977Z,6.39
2023-05-16T04:59:52.792Z,6.40
2023-05-16T05:00:44.192Z,6.48
2023-05-16T05:01:35.765Z,7.15
2023-05-16T05:02:27.445Z,7.56
2023-05-16T05:03:19.047Z,7.36
2023-05-16T05:04:10.792Z,7.27
2023-05-16T05:05:02.277Z,6.50
2023-05-16T05:05:54.338Z,7.13
2023-05-16T05:06:45.802Z,7.07
2023-05-16T05:07:37.285Z,6.98
2023-05-16T05:08:28.732Z,7.24
2023-05-16T05:09:20.546Z,6.17
2023-05-16T05:10:12.219Z,6.35
2023-05-16T05:11:03.737Z,6.56
2023-05-16T05:11:55.367Z,6.04
2023-05-16T05:12:47.026Z,5.97
2023-05-16T05:13:38.506Z,5.63
2023-05-16T05:14:29.964Z,6.20
2023-05-16T05:15:21.475Z,6.18
2023-05-16T05:16:13.553Z,6.39
2023-05-16T05:17:05.241Z,5.79
2023-05-16T05:17:58.000Z,6.10
2023-05-16T05:18:49.538Z,5.72
2023-05-16T05:19:41.097Z,5.77
2023-05-16T05:20:35.043Z,5.29
2023-05-16T05:21:26.478Z,5.39
2023-05-16T05:22:17.893Z,5.56
2023-05-16T05:23:14.370Z,5.73
2023-05-16T05:24:08.396Z,5.29
2023-05-16T05:25:00.140Z,5.49
2023-05-16T05:25:51.902Z,6.37
2023-05-16T05:26:43.304Z,6.00
2023-05-16T05:27:34.695Z,5.90
2023-05-16T05:28:26.204Z,5.88
2023-05-16T05:29:17.576Z,6.28
2023-05-16T05:30:09.741Z,6.22
2023-05-16T05:31:01.140Z,6.75
2023-05-16T05:31:52.589Z,6.58
2023-05-16T05:32:44.331Z,5.75
2023-05-16T05:33:35.837Z,5.27
2023-05-16T05:34:27.267Z,5.25
2023-05-16T05:35:18.675Z,6.10
2023-05-16T05:36:12.529Z,6.04
2023-05-16T05:37:04.258Z,6.02
2023-05-16T05:37:55.689Z,5.53
2023-05-16T05:38:47.186Z,5.86
2023-05-16T05:39:38.585Z,6.09
2023-05-16T05:40:30.397Z,5.94
2023-05-16T05:41:22.322Z,5.54
2023-05-16T05:42:13.972Z,6.14
2023-05-16T05:43:05.886Z,6.18
2023-05-16T05:43:57.335Z,6.19
2023-05-16T05:44:48.764Z,6.80
2023-05-16T05:45:40.448Z,6.37
2023-05-16T05:46:33.738Z,6.66
2023-05-16T05:47:25.745Z,5.90
2023-05-16T05:48:17.519Z,6.29
2023-05-16T05:49:09.159Z,5.83
2023-05-16T05:50:03.205Z,5.73
2023-05-16T05:50:54.839Z,6.09
2023-05-16T05:51:46.527Z,6.03
2023-05-16T05:52:38.777Z,6.21
2023-05-16T05:53:30.490Z,6.63
2023-05-16T05:54:22.319Z,6.53
2023-05-16T05:55:13.980Z,5.98
2023-05-16T05:56:05.696Z,6.51
2023-05-16T05:56:59.347Z,6.47
2023-05-16T05:57:50.803Z,6.39
2023-05-16T05:58:42.342Z,6.41
2023-05-16T05:59:34.183Z,6.47
2023-05-16T06:00:26.071Z,6.41
2023-05-16T06:01:21.220Z,6.57
2023-05-16T06:02:13.947Z,6.38
2023-05-16T06:03:05.883Z,5.55
2023-05-16T06:03:58.188Z,5.54
2023-05-16T06:04:50.442Z,5.43
2023-05-16T06:05:42.227Z,6.11
2023-05-16T06:06:33.811Z,6.13
2023-05-16T06:07:25.310Z,6.02
2023-05-16T06:08:16.717Z,6.01
2023-05-16T06:09:08.302Z,6.02
2023-05-16T06:10:05.175Z,5.81
2023-05-16T06:10:56.810Z,6.16
2023-05-16T06:11:48.460Z,5.33
2023-05-16T06:12:40.006Z,5.41
2023-05-16T06:13:31.496Z,4.99
2023-05-16T06:14:23.327Z,5.58
2023-05-16T06:15:14.839Z,5.62
2023-05-16T06:16:08.793Z,5.26
2023-05-16T06:17:00.974Z,5.16
2023-05-16T06:17:52.412Z,5.53
2023-05-16T06:18:44.663Z,5.18
2023-05-16T06:19:36.077Z,4.93
2023-05-16T06:20:27.562Z,4.60
2023-05-16T06:21:19.100Z,4.81
2023-05-16T06:22:10.603Z,4.77
2023-05-16T06:23:02.050Z,4.67
2023-05-16T06:23:53.636Z,4.39
2023-05-16T06:24:47.263Z,4.68
2023-05-16T06:25:38.902Z,4.62
2023-05-16T06:26:30.567Z,4.63
2023-05-16T06:27:24.149Z,4.41
2023-05-16T06:28:15.851Z,4.38
2023-05-16T06:29:07.507Z,4.58
2023-05-16T06:29:58.896Z,4.71
2023-05-16T06:30:51.894Z,4.11
2023-05-16T06:31:43.638Z,4.81
2023-05-16T06:32:35.247Z,4.90
2023-05-16T06:33:26.717Z,4.85
2023-05-16T06:34:18.181Z,5.22
2023-05-16T06:35:12.033Z,4.82
2023-05-16T06:36:03.470Z,4.35
2023-05-16T06:36:55.339Z,4.70
2023-05-16T06:37:46.774Z,5.20
2023-05-16T06:38:38.191Z,5.38
2023-05-16T06:39:29.565Z,5.40
2023-05-16T06:40:21.091Z,4.48
2023-05-16T06:41:12.578Z,5.13
2023-05-16T06:42:04.550Z,4.50
2023-05-16T06:42:58.455Z,5.40
2023-05-16T06:43:50.133Z,5.00
2023-05-16T06:44:43.808Z,5.15
2023-05-16T06:45:35.456Z,4.76
2023-05-16T06:46:26.976Z,4.82
2023-05-16T06:47:18.689Z,4.67
2023-05-16T06:48:10.221Z,5.30
2023-05-16T06:49:01.712Z,4.35
2023-05-16T06:49:53.136Z,4.65
2023-05-16T06:50:48.999Z,4.23
2023-05-16T06:51:40.502Z,5.01
2023-05-16T06:52:32.212Z,4.93
2023-05-16T06:53:26.249Z,4.46
2023-05-16T06:54:17.770Z,4.55
2023-05-16T06:55:09.941Z,4.30
2023-05-16T06:56:01.713Z,4.35
2023-05-16T06:56:55.462Z,4.77
2023-05-16T06:57:46.912Z,4.46
2023-05-16T06:58:41.051Z,4.60
2023-05-16T06:59:32.575Z,3.46
2023-05-16T07:00:24.659Z,4.61
2023-05-16T07:01:16.475Z,3.61
2023-05-16T07:02:08.060Z,3.74
2023-05-16T07:02:59.603Z,4.10
2023-05-16T07:03:54.023Z,3.88
2023-05-16T07:04:45.926Z,4.73
2023-05-16T07:05:37.319Z,4.69
2023-05-16T07:06:29.844Z,4.39
2023-05-16T07:07:21.407Z,4.49
2023-05-16T07:08:12.997Z,4.24
2023-05-16T07:09:04.713Z,5.25
2023-05-16T07:09:57.718Z,4.80
2023-05-16T07:10:49.187Z,4.48
2023-05-16T07:11:43.128Z,4.71
2023-05-16T07:12:37.565Z,5.38
2023-05-16T07:13:28.991Z,4.28
2023-05-16T07:14:20.434Z,4.03
2023-05-16T07:15:12.335Z,5.25
2023-05-16T07:16:04.278Z,5.69
2023-05-16T07:16:55.913Z,4.64
2023-05-16T07:17:47.592Z,4.65
2023-05-16T07:18:39.162Z,4.39
2023-05-16T07:19:31.870Z,4.57
2023-05-16T07:20:23.591Z,4.25
2023-05-16T07:21:15.072Z,4.04
2023-05-16T07:22:06.750Z,4.70
2023-05-16T07:23:00.718Z,4.62
2023-05-16T07:23:52.351Z,4.41
2023-05-16T07:24:44.266Z,4.70
2023-05-16T07:25:36.939Z,4.92
2023-05-16T07:26:31.853Z,4.83
2023-05-16T07:27:23.805Z,5.05
2023-05-16T07:28:15.303Z,4.98
2023-05-16T07:29:06.753Z,4.79
2023-05-16T07:30:01.072Z,4.66
2023-05-16T07:30:52.612Z,4.19
2023-05-16T07:31:45.325Z,3.97
2023-05-16T07:32:38.945Z,3.78
2023-05-16T07:33:30.432Z,3.76
2023-05-16T07:34:24.355Z,3.65
2023-05-16T07:35:15.771Z,3.63
2023-05-16T07:36:16.373Z,3.88
2023-05-16T07:37:12.868Z,3.58
2023-05-16T07:38:04.456Z,3.64
2023-05-16T07:38:55.926Z,3.50
2023-05-16T07:39:47.475Z,3.33
2023-05-16T07:40:38.936Z,3.97
2023-05-16T07:41:31.350Z,3.56
2023-05-16T07:42:22.777Z,3.11
2023-05-16T07:43:16.683Z,3.73
2023-05-16T07:44:08.346Z,3.42
2023-05-16T07:45:02.091Z,3.60
2023-05-16T07:45:53.896Z,3.71
2023-05-16T07:46:49.198Z,3.35
2023-05-16T07:47:41.200Z,3.16
2023-05-16T07:48:33.888Z,3.11
2023-05-16T07:49:25.429Z,3.39
2023-05-16T07:50:16.875Z,3.10
2023-05-16T07:51:10.165Z,3.24
2023-05-16T07:52:01.687Z,3.16
2023-05-16T07:52:55.429Z,3.13
2023-05-16T07:53:52.182Z,3.33
2023-05-16T07:54:43.743Z,3.98
2023-05-16T07:55:35.437Z,3.53
2023-05-16T07:56:26.982Z,3.32
2023-05-16T07:57:18.804Z,3.30
2023-05-16T07:58:10.665Z,3.52
2023-05-16T07:59:02.319Z,3.51
2023-05-16T07:59:56.191Z,3.49
2023-05-16T08:00:47.910Z,3.40
2023-05-16T08:01:39.572Z,3.33
2023-05-16T08:02:31.560Z,3.26
2023-05-16T08:03:23.617Z,3.55
2023-05-16T08:04:15.496Z,3.14
2023-05-16T08:05:08.997Z,3.12
2023-05-16T08:06:00.756Z,2.86
2023-05-16T08:06:52.335Z,2.79
2023-05-16T08:07:44.021Z,2.55
2023-05-16T08:08:35.701Z,3.02
2023-05-16T08:09:27.126Z,2.64
2023-05-16T08:10:18.776Z,2.93
2023-05-16T08:11:11.241Z,3.15
2023-05-16T08:12:03.820Z,3.15
2023-05-16T08:12:55.720Z,2.87
2023-05-16T08:13:47.309Z,2.86
2023-05-16T08:14:38.982Z,3.08
2023-05-16T08:15:30.745Z,2.69
2023-05-16T08:16:23.854Z,2.67
2023-05-16T08:17:15.482Z,2.60
2023-05-16T08:18:14.640Z,2.37
2023-05-16T08:19:06.949Z,2.83
2023-05-16T08:20:01.817Z,2.97
2023-05-16T08:20:53.327Z,2.81
2023-05-16T08:21:45.032Z,2.75
2023-05-16T08:22:36.603Z,2.47
2023-05-16T08:23:30.735Z,2.45
2023-05-16T08:24:22.401Z,3.03
2023-05-16T08:25:13.960Z,3.30
2023-05-16T08:26:05.448Z,3.30
2023-05-16T08:26:59.525Z,3.08
2023-05-16T08:27:51.520Z,2.90
2023-05-16T08:28:45.116Z,3.03
2023-05-16T08:29:36.613Z,2.95
2023-05-16T08:30:28.544Z,2.60
2023-05-16T08:31:20.156Z,2.99
2023-05-16T08:32:12.040Z,2.94
2023-05-16T08:33:05.301Z,2.96
2023-05-16T08:33:58.208Z,2.67
2023-05-16T08:34:49.915Z,2.70
2023-05-16T08:35:47.325Z,3.01
2023-05-16T08:36:39.007Z,2.87
2023-05-16T08:37:30.698Z,2.17
2023-05-16T08:38:22.237Z,2.36
2023-05-16T08:39:13.760Z,2.32
2023-05-16T08:40:09.358Z,2.67
2023-05-16T08:41:01.378Z,2.40
2023-05-16T08:41:53.229Z,2.45
2023-05-16T08:42:45.454Z,2.57
2023-05-16T08:43:37.500Z,2.73
2023-05-16T08:44:29.449Z,2.48
2023-05-16T08:45:23.669Z,2.20
2023-05-16T08:46:23.384Z,2.27
2023-05-16T08:47:25.462Z,2.77
2023-05-16T08:48:23.681Z,2.45
2023-05-16T08:49:19.220Z,2.73
2023-05-16T08:50:11.685Z,2.68
2023-05-16T08:51:09.473Z,2.82
2023-05-16T08:52:05.901Z,2.63
2023-05-16T08:53:01.844Z,2.23
2023-05-16T08:54:00.866Z,2.29
2023-05-16T08:55:09.273Z,2.35
2023-05-16T08:56:04.222Z,2.72
2023-05-16T08:56:57.638Z,2.57
2023-05-16T08:57:51.473Z,2.47
2023-05-16T08:58:44.105Z,2.12
2023-05-16T08:59:36.289Z,2.72
2023-05-16T09:00:28.654Z,2.42
2023-05-16T09:01:22.851Z,2.63
2023-05-16T09:02:15.367Z,2.80
2023-05-16T09:03:06.988Z,2.74
2023-05-16T09:04:00.214Z,2.55
2023-05-16T09:04:53.102Z,3.03
2023-05-16T09:05:44.741Z,2.57
2023-05-16T09:06:37.568Z,2.58
2023-05-16T09:07:29.637Z,2.33
2023-05-16T09:08:21.218Z,2.69
2023-05-16T09:09:12.979Z,2.42
2023-05-16T09:10:06.881Z,2.38
2023-05-16T09:10:58.468Z,2.42
2023-05-16T09:11:52.603Z,1.90
2023-05-16T09:12:46.766Z,1.63
2023-05-16T09:13:41.392Z,2.10
2023-05-16T09:14:32.921Z,2.38
2023-05-16T09:15:32.546Z,1.87
2023-05-16T09:16:24.541Z,2.46
2023-05-16T09:17:18.619Z,2.17
2023-05-16T09:18:14.547Z,2.16
2023-05-16T09:19:08.452Z,2.03
2023-05-16T09:19:59.896Z,2.03
2023-05-16T09:20:53.550Z,2.09
2023-05-16T09:21:45.459Z,1.87
2023-05-16T09:22:38.042Z,2.21
2023-05-16T09:23:29.976Z,1.98
2023-05-16T09:24:26.171Z,2.16
2023-05-16T09:25:28.482Z,2.10
2023-05-16T09:26:22.594Z,2.10
2023-05-16T09:27:16.649Z,1.90
2023-05-16T09:28:12.226Z,1.97
2023-05-16T09:29:13.760Z,2.35
2023-05-16T09:30:05.710Z,2.88
2023-05-16T09:30:59.834Z,2.82
2023-05-16T09:31:51.741Z,2.59
2023-05-16T09:32:45.145Z,2.64
2023-05-16T09:33:37.885Z,2.83
2023-05-16T09:34:31.755Z,2.70
2023-05-16T09:35:44.898Z,2.97
2023-05-16T09:36:37.600Z,2.87
2023-05-16T09:37:30.677Z,3.08
2023-05-16T09:38:22.368Z,2.91
2023-05-16T09:39:17.655Z,3.31
2023-05-16T09:40:10.505Z,2.82
2023-05-16T09:41:02.387Z,2.87
2023-05-16T09:41:53.946Z,2.94
2023-05-16T09:42:46.279Z,3.28
2023-05-16T09:43:42.965Z,2.88
2023-05-16T09:44:34.793Z,2.50
2023-05-16T09:45:26.698Z,2.72
2023-05-16T09:46:20.023Z,2.76
2023-05-16T09:47:15.612Z,3.19
2023-05-16T09:48:10.263Z,3.03
2023-05-16T09:49:02.794Z,2.96
2023-05-16T09:49:55.045Z,2.78
2023-05-16T09:50:52.201Z,2.72
2023-05-16T09:51:43.733Z,2.61
2023-05-16T09:52:35.276Z,3.01
2023-05-16T09:53:30.861Z,2.91
2023-05-16T09:54:33.993Z,2.82
2023-05-16T09:55:25.766Z,2.59
2023-05-16T09:56:17.466Z,2.34
2023-05-16T09:57:09.147Z,2.04
2023-05-16T09:58:01.268Z,2.70
2023-05-16T09:58:52.798Z,2.41
2023-05-16T09:59:45.891Z,2.11
2023-05-16T10:00:38.608Z,2.19
2023-05-16T10:01:30.733Z,2.36
2023-05-16T10:02:23.441Z,2.51
2023-05-16T10:03:15.635Z,2.25
2023-05-16T10:04:10.580Z,2.41
2023-05-16T10:05:04.609Z,2.55
2023-05-16T10:05:56.385Z,2.50
2023-05-16T10:06:52.636Z,2.40
2023-05-16T10:07:47.441Z,2.31
2023-05-16T10:08:43.698Z,2.50
2023-05-16T10:09:36.679Z,2.07
2023-05-16T10:10:34.330Z,2.13
2023-05-16T10:11:27.172Z,2.36
2023-05-16T10:12:25.945Z,2.26
2023-05-16T10:13:21.115Z,2.62
2023-05-16T10:14:17.883Z,2.50
2023-05-16T10:15:11.964Z,2.48
2023-05-16T10:16:11.237Z,2.52
2023-05-16T10:17:05.273Z,2.59
2023-05-16T10:18:00.383Z,2.61
2023-05-16T10:18:53.482Z,3.08
2023-05-16T10:19:47.817Z,2.83
2023-05-16T10:20:42.796Z,2.87
2023-05-16T10:21:38.916Z,2.74
2023-05-16T10:22:35.837Z,2.95
2023-05-16T10:23:28.764Z,2.72
2023-05-16T10:24:29.788Z,3.07
2023-05-16T10:25:29.862Z,2.98
2023-05-16T10:26:23.583Z,2.78
2023-05-16T10:27:18.608Z,2.64
2023-05-16T10:28:12.541Z,1.96
2023-05-16T10:29:05.954Z,1.81
2023-05-16T10:29:58.699Z,1.81
2023-05-16T10:30:51.534Z,1.50
2023-05-16T10:31:44.066Z,1.69
2023-05-16T10:32:41.909Z,1.68
2023-05-16T10:33:36.606Z,1.76
2023-05-16T10:34:29.165Z,1.59
2023-05-16T10:35:21.713Z,1.99
2023-05-16T10:36:15.561Z,1.98
2023-05-16T10:37:10.788Z,2.04
2023-05-16T10:38:04.519Z,1.70
2023-05-16T10:38:58.476Z,1.95
2023-05-16T10:39:52.033Z,1.60
2023-05-16T10:40:44.768Z,1.98
2023-05-16T10:41:36.765Z,1.94
2023-05-16T10:42:28.277Z,1.74
2023-05-16T10:43:27.498Z,1.57
2023-05-16T10:44:19.396Z,1.97
2023-05-16T10:45:21.101Z,1.87
2023-05-16T10:46:14.126Z,1.75
2023-05-16T10:47:05.899Z,1.32
2023-05-16T10:48:06.653Z,1.66
2023-05-16T10:48:58.915Z,1.46
2023-05-16T10:49:50.875Z,1.47
2023-05-16T10:50:49.104Z,1.41
2023-05-16T10:51:40.757Z,1.44
2023-05-16T10:52:35.365Z,1.66
2023-05-16T10:53:37.506Z,2.23
2023-05-16T10:54:51.784Z,1.75
2023-05-16T10:55:59.569Z,1.87
2023-05-16T10:56:57.025Z,1.84
2023-05-16T10:57:48.743Z,1.87
2023-05-16T10:58:46.061Z,1.80
2023-05-16T10:59:47.792Z,1.84
2023-05-16T11:00:41.399Z,1.95
2023-05-16T11:01:34.863Z,1.70
2023-05-16T11:02:30.281Z,1.97
2023-05-16T11:03:28.533Z,1.82
2023-05-16T11:04:22.408Z,2.15
2023-05-16T11:05:19.291Z,1.57
2023-05-16T11:06:13.657Z,1.34
2023-05-16T11:07:07.967Z,1.72
2023-05-16T11:08:05.211Z,1.71
2023-05-16T11:09:06.106Z,1.58
2023-05-16T11:10:05.564Z,1.61
2023-05-16T11:11:38.806Z,1.26
2023-05-16T11:13:02.218Z,1.27
2023-05-16T11:13:57.098Z,1.21
2023-05-16T11:14:51.778Z,1.20
2023-05-16T11:15:43.344Z,1.57
2023-05-16T11:16:36.634Z,2.04
2023-05-16T11:17:30.786Z,1.83
2023-05-16T11:18:23.923Z,2.01
2023-05-16T11:19:31.050Z,2.19
2023-05-16T11:20:30.234Z,1.94
2023-05-16T11:21:21.716Z,1.59
2023-05-16T11:22:22.915Z,1.93
2023-05-16T11:23:17.233Z,1.64
2023-05-16T11:24:31.174Z,1.94
2023-05-16T11:25:40.907Z,1.61
2023-05-16T11:26:32.563Z,2.05
2023-05-16T11:27:30.126Z,1.86
2023-05-16T11:28:23.728Z,1.93
2023-05-16T11:29:15.469Z,1.88
2023-05-16T11:30:06.970Z,2.14
2023-05-16T11:31:00.085Z,2.39
2023-05-16T11:31:53.084Z,2.02
2023-05-16T11:32:46.496Z,2.16
2023-05-16T11:33:39.952Z,1.96
2023-05-16T11:34:35.980Z,1.61
2023-05-16T11:35:28.797Z,1.69
2023-05-16T11:36:20.513Z,1.82
2023-05-16T11:37:12.637Z,1.69
2023-05-16T11:38:06.550Z,1.87
2023-05-16T11:39:06.672Z,2.27
2023-05-16T11:40:04.475Z,2.25
2023-05-16T11:41:02.205Z,2.52
2023-05-16T11:41:56.070Z,2.60
2023-05-16T11:42:48.315Z,2.58
2023-05-16T11:43:46.427Z,2.65
2023-05-16T11:44:37.873Z,2.48
2023-05-16T11:45:32.051Z,2.62
2023-05-16T11:46:23.670Z,2.58
2023-05-16T11:47:17.630Z,2.44
2023-05-16T11:48:09.631Z,2.80
2023-05-16T11:49:01.370Z,2.75
2023-05-16T11:49:58.148Z,2.72
2023-05-16T11:50:50.088Z,2.40
2023-05-16T11:51:43.342Z,2.30
2023-05-16T11:52:36.314Z,2.25
2023-05-16T11:53:28.574Z,2.36
2023-05-16T11:54:20.754Z,2.38
2023-05-16T11:55:15.640Z,2.34